Airfield :
LOGIN :

Register | Disclaimer

   EN    FR    IT 

 










Legend :    VFR   Marginal VFR   IFR   Intensive IFR   Very Intensive IFR
Visi :
Ceiling :
>= 8 km
>= 3000ft
5 to 8 km
1000 to 3000 ft
1500m to 5 km
500 to 1000 ft
800 to 1500m
200 to 500 ft
< 800m
< 200 ft
Symbols :   Thunderstorms  Fog  Heavy snow  Heavy precipitations  Wind > 20 kt
SIGMETs :     Misc.  Thunderstorms  Icing  Turbulence  Mountain Waves  Volcanic Ashes






- Airport Elevation : 526 ft
- IATA code : LTN


EGGW - London Luton

CURRENT METAR :
  • 211350Z AUTO 12011KT 5000 HZ OVC005 05/04 Q1002

EXPIRED METARs :
  • 211320Z AUTO 12011KT 8000 OVC007 05/04 Q1002
  • 211250Z AUTO 12010KT 9000 OVC008 05/03 Q1002
  • 211220Z AUTO 11013KT 9999 OVC009 05/03 Q1002
  • 211150Z AUTO 11011KT 9999 OVC009 05/03 Q1003
  • 211120Z AUTO 11010KT 9000 OVC008 05/03 Q1003

TAF TAF EGGW
Valid from the 21 at 12:00 until the 22 at 12:00 UTC


211056Z 2112/2212 12010KT 7000 BKN007
TEMPO 2112/2114 9999 BKN010
PROB40
TEMPO 2114/2120 4000 BR BKN004
BECMG 2120/2123 3000 -RADZ OVC003
TEMPO 2121/2203 1400 RADZ BR OVC001
PROB40
TEMPO 2122/2203 0300 FG
BECMG 2203/2206 9999 NSW SCT006
TEMPO 2203/2206 3000 +SHRA
TEMPO 2206/2212 6000 SHRA BKN006
ATIS : +44 1582 395 204



MET'MAP, your aeronautical weather chart ! - Copyright ORBIFLY December 2007 - Disclaimer

ORBIFLY MET'MAP TEAM :

Programming & Development : Alexandra Zaïnal
Concept & Development : Baudouin d'Aumeries
Co-Development & Prog : Marc-Olivier Méhu
Technical & hardware support : Manuel Goepfert

Contact : metmap@orbifly.com




SOURCES & CREDITS :

   NOAA